createdAt,value
2017-12-27T00:01:40.291Z,2.83
2017-12-27T00:04:18.860Z,2.63
2017-12-27T00:06:57.356Z,2.50
2017-12-27T00:09:35.902Z,2.70
2017-12-27T00:12:14.298Z,1.70
2017-12-27T00:14:52.827Z,2.00
2017-12-27T00:17:31.331Z,3.00
2017-12-27T00:20:09.944Z,2.57
2017-12-27T00:25:50.456Z,2.80
2017-12-27T00:28:29.621Z,2.57
2017-12-27T00:31:08.380Z,2.20
2017-12-27T00:33:40.769Z,2.43
2017-12-27T00:36:13.246Z,2.47
2017-12-27T00:38:46.680Z,3.27
2017-12-27T00:41:20.836Z,2.00
2017-12-27T00:43:53.452Z,2.40
2017-12-27T00:46:25.868Z,2.20
2017-12-27T00:48:59.092Z,3.03
2017-12-27T00:51:31.585Z,2.60
2017-12-27T00:54:04.062Z,2.30
2017-12-27T00:56:38.118Z,2.00
2017-12-27T00:59:11.466Z,2.87
2017-12-27T01:01:44.143Z,2.20
2017-12-27T01:04:17.498Z,2.00
2017-12-27T01:06:50.924Z,2.70
2017-12-27T01:09:24.287Z,1.90
2017-12-27T01:11:56.753Z,3.03
2017-12-27T01:14:29.069Z,2.17
2017-12-27T01:17:02.764Z,2.20
2017-12-27T01:19:35.871Z,2.37
2017-12-27T01:22:08.346Z,2.60
2017-12-27T01:24:41.731Z,2.50
2017-12-27T01:27:14.974Z,2.47
2017-12-27T01:29:48.326Z,2.97
2017-12-27T01:32:21.010Z,2.37
2017-12-27T01:34:53.495Z,3.40
2017-12-27T01:37:25.930Z,3.00
2017-12-27T01:39:59.388Z,2.40
2017-12-27T01:42:32.748Z,2.50
2017-12-27T01:45:05.975Z,2.10
2017-12-27T01:47:39.213Z,3.03
2017-12-27T01:50:12.680Z,2.80
2017-12-27T01:52:46.016Z,1.77
2017-12-27T01:55:19.364Z,2.47
2017-12-27T01:57:51.863Z,2.67
2017-12-27T02:00:24.392Z,2.83
2017-12-27T02:02:56.938Z,2.20
2017-12-27T02:05:30.409Z,2.13
2017-12-27T02:08:03.010Z,4.50
2017-12-27T02:10:36.278Z,3.30
2017-12-27T02:13:08.770Z,2.00
2017-12-27T02:15:41.291Z,2.83
2017-12-27T02:18:14.453Z,3.23
2017-12-27T02:20:47.270Z,3.30
2017-12-27T02:23:19.800Z,2.70
2017-12-27T02:25:52.355Z,2.33
2017-12-27T02:28:24.985Z,3.60
2017-12-27T02:30:58.419Z,3.33
2017-12-27T02:33:30.896Z,2.23
2017-12-27T02:36:05.004Z,2.90
2017-12-27T02:38:57.046Z,2.20
2017-12-27T02:41:30.392Z,3.07
2017-12-27T02:44:03.095Z,2.90
2017-12-27T02:46:36.440Z,2.50
2017-12-27T02:49:08.977Z,2.73
2017-12-27T02:51:41.508Z,2.37
2017-12-27T02:54:14.948Z,2.47
2017-12-27T02:56:47.597Z,2.27
2017-12-27T02:59:21.020Z,3.30
2017-12-27T03:01:54.416Z,2.53
2017-12-27T03:04:27.880Z,3.63
2017-12-27T03:07:01.259Z,2.83
2017-12-27T03:09:33.781Z,2.70
2017-12-27T03:12:07.164Z,2.90
2017-12-27T03:14:39.680Z,2.40
2017-12-27T03:17:13.008Z,3.20
2017-12-27T03:19:46.320Z,3.03
2017-12-27T03:22:19.729Z,3.07
2017-12-27T03:24:52.910Z,2.43
2017-12-27T03:27:25.640Z,2.90
2017-12-27T03:29:58.061Z,2.03
2017-12-27T03:32:31.436Z,2.50
2017-12-27T03:35:04.685Z,2.57
2017-12-27T03:37:37.276Z,2.37
2017-12-27T03:40:09.718Z,2.20
2017-12-27T03:42:42.295Z,2.93
2017-12-27T03:45:15.565Z,2.40
2017-12-27T03:47:48.102Z,2.33
2017-12-27T03:50:21.311Z,2.53
2017-12-27T03:52:53.881Z,2.70
2017-12-27T03:55:26.439Z,3.80
2017-12-27T03:57:59.731Z,2.27
2017-12-27T04:00:32.138Z,2.57
2017-12-27T04:03:04.790Z,2.57
2017-12-27T04:05:38.218Z,2.07
2017-12-27T04:08:11.449Z,2.37
2017-12-27T04:10:44.043Z,2.43
2017-12-27T04:13:16.589Z,2.13
2017-12-27T04:15:50.653Z,2.40
2017-12-27T04:18:23.424Z,2.00
2017-12-27T04:20:56.105Z,1.80
2017-12-27T04:23:29.266Z,2.33
2017-12-27T04:26:02.022Z,2.73
2017-12-27T04:28:35.400Z,2.10
2017-12-27T04:31:07.942Z,2.73
2017-12-27T04:33:40.458Z,2.00
2017-12-27T04:36:13.849Z,2.07
2017-12-27T04:38:46.445Z,2.10
2017-12-27T04:41:18.935Z,2.50
2017-12-27T04:43:51.501Z,2.70
2017-12-27T04:46:23.996Z,2.00
2017-12-27T04:48:56.432Z,2.30
2017-12-27T04:51:28.820Z,2.23
2017-12-27T04:54:02.099Z,2.27
2017-12-27T04:56:34.724Z,2.10
2017-12-27T04:59:07.152Z,2.83
2017-12-27T05:01:39.712Z,2.40
2017-12-27T05:04:12.199Z,2.73
2017-12-27T05:06:44.861Z,2.40
2017-12-27T05:09:17.362Z,2.33
2017-12-27T05:11:50.795Z,2.63
2017-12-27T05:14:24.163Z,2.50
2017-12-27T05:16:56.781Z,2.43
2017-12-27T05:19:30.011Z,2.50
2017-12-27T05:22:02.498Z,2.93
2017-12-27T05:24:35.106Z,2.57
2017-12-27T05:27:07.674Z,3.30
2017-12-27T05:29:41.060Z,2.53
2017-12-27T05:32:13.692Z,2.40
2017-12-27T05:34:46.205Z,2.20
2017-12-27T05:37:18.721Z,2.90
2017-12-27T05:39:52.050Z,2.53
2017-12-27T05:42:24.616Z,2.60
2017-12-27T05:44:58.802Z,2.43
2017-12-27T05:47:31.494Z,2.67
2017-12-27T05:50:03.994Z,2.30
2017-12-27T05:52:37.215Z,2.43
2017-12-27T05:55:10.030Z,2.60
2017-12-27T05:57:43.369Z,2.00
2017-12-27T06:00:16.793Z,2.40
2017-12-27T06:02:49.332Z,3.13
2017-12-27T06:05:22.756Z,3.17
2017-12-27T06:07:55.968Z,2.50
2017-12-27T06:10:28.677Z,2.97
2017-12-27T06:13:01.131Z,2.80
2017-12-27T06:15:33.697Z,3.37
2017-12-27T06:18:06.201Z,2.60
2017-12-27T06:20:39.611Z,2.50
2017-12-27T06:23:12.012Z,4.07
2017-12-27T06:25:44.538Z,2.80
2017-12-27T06:28:17.855Z,3.03
2017-12-27T06:30:50.690Z,3.50
2017-12-27T06:33:23.914Z,3.10
2017-12-27T06:35:56.357Z,3.00
2017-12-27T06:38:28.898Z,4.23
2017-12-27T06:41:01.289Z,3.50
2017-12-27T06:43:34.707Z,3.23
2017-12-27T06:46:08.108Z,3.03
2017-12-27T06:48:40.730Z,3.40
2017-12-27T06:51:14.053Z,3.13
2017-12-27T06:53:46.931Z,3.67
2017-12-27T06:56:20.255Z,3.80
2017-12-27T06:58:52.761Z,3.47
2017-12-27T07:01:25.397Z,3.70
2017-12-27T07:03:57.924Z,3.67
2017-12-27T07:06:30.395Z,3.27
2017-12-27T07:09:02.945Z,3.40
2017-12-27T07:11:36.365Z,3.73
2017-12-27T07:14:08.884Z,3.60
2017-12-27T07:16:41.316Z,3.60
2017-12-27T07:19:13.760Z,4.80
2017-12-27T07:21:46.374Z,5.63
2017-12-27T07:24:19.664Z,3.40
2017-12-27T07:26:52.312Z,3.73
2017-12-27T07:29:25.521Z,4.23
2017-12-27T07:31:58.178Z,5.83
2017-12-27T07:34:31.670Z,4.03
2017-12-27T07:37:04.947Z,5.30
2017-12-27T07:39:37.429Z,4.90
2017-12-27T07:42:10.856Z,4.30
2017-12-27T07:44:45.020Z,5.80
2017-12-27T07:47:17.832Z,5.47
2017-12-27T07:49:51.160Z,4.13
2017-12-27T07:52:24.605Z,3.83
2017-12-27T07:54:58.042Z,5.33
2017-12-27T07:57:31.492Z,4.60
2017-12-27T08:00:04.667Z,3.90
2017-12-27T08:02:37.158Z,4.77
2017-12-27T08:05:10.528Z,5.20
2017-12-27T08:07:43.062Z,4.37
2017-12-27T08:10:16.300Z,5.50
2017-12-27T08:12:48.829Z,4.83
2017-12-27T08:15:21.341Z,4.60
2017-12-27T08:17:54.736Z,5.00
2017-12-27T08:20:27.128Z,3.90
2017-12-27T08:22:59.707Z,4.03
2017-12-27T08:25:33.104Z,5.83
2017-12-27T08:28:05.612Z,4.90
2017-12-27T08:30:38.188Z,3.20
2017-12-27T08:33:11.513Z,6.30
2017-12-27T08:35:44.209Z,5.37
2017-12-27T08:38:17.057Z,4.87
2017-12-27T08:40:50.333Z,6.23
2017-12-27T08:43:23.884Z,3.57
2017-12-27T08:45:57.842Z,5.33
2017-12-27T08:48:30.686Z,6.30
2017-12-27T08:51:03.973Z,5.10
2017-12-27T08:53:37.465Z,5.93
2017-12-27T08:56:10.803Z,6.40
2017-12-27T08:58:44.289Z,5.00
2017-12-27T09:01:24.526Z,5.40
2017-12-27T09:03:57.953Z,5.00
2017-12-27T09:06:31.240Z,4.87
2017-12-27T09:09:03.805Z,4.00
2017-12-27T09:11:37.222Z,5.33
2017-12-27T09:14:09.830Z,4.77
2017-12-27T09:16:42.248Z,5.63
2017-12-27T09:19:14.825Z,3.80
2017-12-27T09:21:48.032Z,3.40
2017-12-27T09:24:20.862Z,5.00
2017-12-27T09:26:53.337Z,5.50
2017-12-27T09:29:25.790Z,4.87
2017-12-27T09:31:59.072Z,3.60
2017-12-27T09:34:32.509Z,4.07
2017-12-27T09:37:05.397Z,5.20
2017-12-27T09:39:37.890Z,4.47
2017-12-27T09:42:10.366Z,4.63
2017-12-27T09:44:42.938Z,4.67
2017-12-27T09:47:16.289Z,4.87
2017-12-27T09:49:48.968Z,3.17
2017-12-27T09:52:22.303Z,4.30
2017-12-27T09:54:54.790Z,3.90
2017-12-27T09:57:28.098Z,3.27
2017-12-27T10:00:01.403Z,3.63
2017-12-27T10:02:33.973Z,4.20
2017-12-27T10:05:06.672Z,5.17
2017-12-27T10:07:40.022Z,4.50
2017-12-27T10:10:12.469Z,4.60
2017-12-27T10:12:45.782Z,3.87
2017-12-27T10:15:18.279Z,4.77
2017-12-27T10:17:51.662Z,3.37
2017-12-27T10:20:25.029Z,2.90
2017-12-27T10:22:58.290Z,3.63
2017-12-27T10:25:31.654Z,3.87
2017-12-27T10:28:04.934Z,4.33
2017-12-27T10:30:37.741Z,3.10
2017-12-27T10:33:10.179Z,3.00
2017-12-27T10:35:44.206Z,3.70
2017-12-27T10:38:17.752Z,4.00
2017-12-27T10:40:50.467Z,3.50
2017-12-27T10:43:23.145Z,3.30
2017-12-27T10:45:56.316Z,2.87
2017-12-27T10:48:30.440Z,3.23
2017-12-27T10:51:03.030Z,3.53
2017-12-27T10:53:35.532Z,3.40
2017-12-27T10:56:07.911Z,3.10
2017-12-27T10:58:41.222Z,3.20
2017-12-27T11:01:14.579Z,3.73
2017-12-27T11:03:46.986Z,3.83
2017-12-27T11:06:19.419Z,4.63
2017-12-27T11:08:52.620Z,5.17
2017-12-27T11:11:25.337Z,4.60
2017-12-27T11:13:58.684Z,4.97
2017-12-27T11:16:32.051Z,7.00
2017-12-27T11:19:04.562Z,6.23
2017-12-27T11:21:37.796Z,7.37
2017-12-27T11:24:10.286Z,7.60
2017-12-27T11:26:42.800Z,6.77
2017-12-27T11:29:16.121Z,7.67
2017-12-27T11:31:49.500Z,5.90
2017-12-27T11:34:22.095Z,6.80
2017-12-27T11:36:54.628Z,6.80
2017-12-27T11:39:27.029Z,5.80
2017-12-27T11:41:59.583Z,6.30
2017-12-27T11:44:33.794Z,6.80
2017-12-27T11:47:06.455Z,5.87
2017-12-27T11:49:38.955Z,6.13
2017-12-27T11:52:11.413Z,5.47
2017-12-27T11:54:45.490Z,4.77
2017-12-27T11:57:18.813Z,3.70
2017-12-27T11:59:51.480Z,4.03
2017-12-27T12:02:24.749Z,4.90
2017-12-27T12:04:57.548Z,3.07
2017-12-27T12:07:30.056Z,3.90
2017-12-27T12:10:02.513Z,4.00
2017-12-27T12:12:35.134Z,3.50
2017-12-27T12:15:08.551Z,4.30
2017-12-27T12:17:41.771Z,4.77
2017-12-27T12:20:14.248Z,3.90
2017-12-27T12:22:47.555Z,4.37
2017-12-27T12:25:21.675Z,4.60
2017-12-27T12:27:54.448Z,3.70
2017-12-27T12:30:26.918Z,6.00
2017-12-27T12:32:59.446Z,5.30
2017-12-27T12:35:32.838Z,6.80
2017-12-27T12:38:06.281Z,4.00
2017-12-27T12:40:39.631Z,3.50
2017-12-27T12:43:12.057Z,4.77
2017-12-27T12:45:45.463Z,4.70
2017-12-27T12:48:18.702Z,3.93
2017-12-27T12:50:51.325Z,3.80
2017-12-27T12:53:23.797Z,4.13
2017-12-27T12:55:57.115Z,4.70
2017-12-27T12:58:29.656Z,3.30
2017-12-27T13:01:03.040Z,4.03
2017-12-27T13:03:35.611Z,3.73
2017-12-27T13:06:08.852Z,3.80
2017-12-27T13:08:41.427Z,3.90
2017-12-27T13:11:14.179Z,3.27
2017-12-27T13:13:47.399Z,3.80
2017-12-27T13:16:20.217Z,3.40
2017-12-27T13:18:53.898Z,3.07
2017-12-27T13:21:27.947Z,3.17
2017-12-27T13:24:00.542Z,4.13
2017-12-27T13:26:34.608Z,3.07
2017-12-27T13:29:07.999Z,3.33
2017-12-27T13:31:40.971Z,2.90
2017-12-27T13:34:13.645Z,3.60
2017-12-27T13:36:46.892Z,2.00
2017-12-27T13:39:19.616Z,2.67
2017-12-27T13:41:52.079Z,3.57
2017-12-27T13:44:25.444Z,2.80
2017-12-27T13:46:58.866Z,3.33
2017-12-27T13:49:32.057Z,3.60
2017-12-27T13:52:05.642Z,3.57
2017-12-27T13:54:38.228Z,2.90
2017-12-27T13:57:11.678Z,3.40
2017-12-27T13:59:44.814Z,2.90
2017-12-27T14:02:17.497Z,3.37
2017-12-27T14:04:50.775Z,3.10
2017-12-27T14:07:23.299Z,3.40
2017-12-27T14:09:56.658Z,3.80
2017-12-27T14:12:29.352Z,3.50
2017-12-27T14:15:01.990Z,3.30
2017-12-27T14:17:34.410Z,3.60
2017-12-27T14:20:08.483Z,2.73
2017-12-27T14:22:41.219Z,3.20
2017-12-27T14:25:13.664Z,3.23
2017-12-27T14:27:47.073Z,2.60
2017-12-27T14:30:19.660Z,3.87
2017-12-27T14:32:53.034Z,3.20
2017-12-27T14:35:26.335Z,3.97
2017-12-27T14:37:58.974Z,4.57
2017-12-27T14:40:31.581Z,4.53
2017-12-27T14:43:04.986Z,3.80
2017-12-27T14:45:37.546Z,4.20
2017-12-27T14:48:10.836Z,4.50
2017-12-27T14:50:44.232Z,5.03
2017-12-27T14:53:17.622Z,5.00
2017-12-27T14:55:51.719Z,4.07
2017-12-27T14:58:24.306Z,5.50
2017-12-27T15:00:58.412Z,4.43
2017-12-27T15:03:30.898Z,4.97
2017-12-27T15:06:03.420Z,3.80
2017-12-27T15:08:37.207Z,4.90
2017-12-27T15:11:10.835Z,5.03
2017-12-27T15:13:43.715Z,4.33
2017-12-27T15:16:16.249Z,4.07
2017-12-27T15:18:50.287Z,6.20
2017-12-27T15:21:23.763Z,4.00
2017-12-27T15:23:56.436Z,4.57
2017-12-27T15:26:28.944Z,4.97
2017-12-27T15:29:02.140Z,5.50
2017-12-27T15:31:35.528Z,5.17
2017-12-27T15:34:08.185Z,5.60
2017-12-27T15:36:40.655Z,5.10
2017-12-27T15:39:13.994Z,5.00
2017-12-27T15:41:47.242Z,5.50
2017-12-27T15:44:19.824Z,5.90
2017-12-27T15:46:52.319Z,5.50
2017-12-27T15:49:26.311Z,6.00
2017-12-27T15:51:59.981Z,6.30
2017-12-27T15:54:33.905Z,5.60
2017-12-27T15:57:08.234Z,4.83
2017-12-27T15:59:41.479Z,5.60
2017-12-27T16:02:14.129Z,4.50
2017-12-27T16:04:47.386Z,4.23
2017-12-27T16:07:19.896Z,4.77
2017-12-27T16:09:53.117Z,4.80
2017-12-27T16:12:26.519Z,5.60
2017-12-27T16:14:59.763Z,4.67
2017-12-27T16:17:32.187Z,4.20
2017-12-27T16:20:04.794Z,5.13
2017-12-27T16:22:37.298Z,5.10
2017-12-27T16:25:10.642Z,4.53
2017-12-27T16:27:44.008Z,5.73
2017-12-27T16:30:17.428Z,5.87
2017-12-27T16:32:50.809Z,4.70
2017-12-27T16:35:23.298Z,5.07
2017-12-27T16:37:56.660Z,6.20
2017-12-27T16:40:29.069Z,5.03
2017-12-27T16:43:02.370Z,5.20
2017-12-27T16:45:35.136Z,6.70
2017-12-27T16:48:08.512Z,5.67
2017-12-27T16:50:41.029Z,5.13
2017-12-27T16:53:13.528Z,5.90
2017-12-27T16:55:46.896Z,7.00
2017-12-27T16:58:20.239Z,5.47
2017-12-27T17:00:53.517Z,6.07
2017-12-27T17:03:26.308Z,5.50
2017-12-27T17:05:58.792Z,4.20
2017-12-27T17:08:31.227Z,4.63
2017-12-27T17:11:04.609Z,5.00
2017-12-27T17:13:37.080Z,4.20
2017-12-27T17:16:09.514Z,4.80
2017-12-27T17:18:42.939Z,4.17
2017-12-27T17:21:16.242Z,4.80
2017-12-27T17:23:48.643Z,4.90
2017-12-27T17:26:21.903Z,4.63
2017-12-27T17:28:55.624Z,3.80
2017-12-27T17:31:28.457Z,4.97
2017-12-27T17:34:00.936Z,4.57
2017-12-27T17:36:33.462Z,4.10
2017-12-27T17:39:05.960Z,4.47
2017-12-27T17:41:39.257Z,5.03
2017-12-27T17:44:11.802Z,5.30
2017-12-27T17:46:46.080Z,5.10
2017-12-27T17:49:20.129Z,5.63
2017-12-27T17:51:52.773Z,5.50
2017-12-27T17:54:26.213Z,4.20
2017-12-27T17:56:58.732Z,4.67
2017-12-27T17:59:31.160Z,4.70
2017-12-27T18:02:04.520Z,4.60
2017-12-27T18:04:37.747Z,5.03
2017-12-27T18:07:10.472Z,5.13
2017-12-27T18:09:42.991Z,5.67
2017-12-27T18:12:16.279Z,4.80
2017-12-27T18:14:49.445Z,4.10
2017-12-27T18:17:22.213Z,4.00
2017-12-27T18:19:55.764Z,5.07
2017-12-27T18:22:28.310Z,6.23
2017-12-27T18:25:00.717Z,4.47
2017-12-27T18:27:33.194Z,4.23
2017-12-27T18:30:06.637Z,4.00
2017-12-27T18:32:39.962Z,4.00
2017-12-27T18:35:13.260Z,4.10
2017-12-27T18:37:46.737Z,3.33
2017-12-27T18:40:19.226Z,3.30
2017-12-27T18:42:52.405Z,3.87
2017-12-27T18:45:24.888Z,3.77
2017-12-27T18:47:57.411Z,4.30
2017-12-27T18:50:30.849Z,3.30
2017-12-27T18:53:03.370Z,4.10
2017-12-27T18:55:35.929Z,4.17
2017-12-27T18:58:10.132Z,4.60
2017-12-27T19:00:42.733Z,4.87
2017-12-27T19:03:16.174Z,4.40
2017-12-27T19:05:49.610Z,4.33
2017-12-27T19:08:24.189Z,4.20
2017-12-27T19:10:57.542Z,3.83
2017-12-27T19:13:30.122Z,4.87
2017-12-27T19:16:03.413Z,4.83
2017-12-27T19:18:35.967Z,5.60
2017-12-27T19:21:10.066Z,4.60
2017-12-27T19:23:42.753Z,4.50
2017-12-27T19:26:15.363Z,4.03
2017-12-27T19:28:49.725Z,5.37
2017-12-27T19:31:23.421Z,4.63
2017-12-27T19:33:56.672Z,6.50
2017-12-27T19:36:30.418Z,4.77
2017-12-27T19:39:03.414Z,4.50
2017-12-27T19:41:37.163Z,5.00
2017-12-27T19:44:11.890Z,4.30
2017-12-27T19:46:46.471Z,3.60
2017-12-27T19:49:20.847Z,4.40
2017-12-27T19:51:54.194Z,5.47
2017-12-27T19:54:29.026Z,5.20
2017-12-27T19:57:04.240Z,3.60
2017-12-27T19:59:38.863Z,5.10
2017-12-27T20:02:13.185Z,4.03
2017-12-27T20:04:47.834Z,3.70
2017-12-27T20:07:22.294Z,4.87
2017-12-27T20:09:57.140Z,4.07
2017-12-27T20:12:32.146Z,5.33
2017-12-27T20:15:07.056Z,4.07
2017-12-27T20:17:41.526Z,5.40
2017-12-27T20:20:16.251Z,4.60
2017-12-27T20:22:50.380Z,4.83
2017-12-27T20:25:25.508Z,4.40
2017-12-27T20:28:01.052Z,3.77
2017-12-27T20:30:35.713Z,5.37
2017-12-27T20:33:10.906Z,6.40
2017-12-27T20:35:45.969Z,4.83
2017-12-27T20:38:20.189Z,4.93
2017-12-27T20:40:56.676Z,4.10
2017-12-27T20:43:31.881Z,5.77
2017-12-27T20:46:06.550Z,4.83
2017-12-27T20:48:41.094Z,4.17
2017-12-27T20:51:17.296Z,4.90
2017-12-27T20:53:52.669Z,5.30
2017-12-27T20:56:28.147Z,4.00
2017-12-27T20:59:03.781Z,3.80
2017-12-27T21:01:39.298Z,5.27
2017-12-27T21:04:13.808Z,3.67
2017-12-27T21:06:49.725Z,3.90
2017-12-27T21:09:25.914Z,4.23
2017-12-27T21:12:01.897Z,4.30
2017-12-27T21:14:36.882Z,3.10
2017-12-27T21:17:12.553Z,3.80
2017-12-27T21:19:48.003Z,3.50
2017-12-27T21:22:23.244Z,3.90
2017-12-27T21:24:59.177Z,5.63
2017-12-27T21:27:34.765Z,3.20
2017-12-27T21:30:10.420Z,3.70
2017-12-27T21:32:46.254Z,4.80
2017-12-27T21:35:21.252Z,3.70
2017-12-27T21:37:56.950Z,3.97
2017-12-27T21:40:32.041Z,3.37
2017-12-27T21:43:07.937Z,3.13
2017-12-27T21:45:43.142Z,4.30
2017-12-27T21:48:24.310Z,3.60
2017-12-27T21:51:00.894Z,3.00
2017-12-27T21:53:36.605Z,3.17
2017-12-27T21:56:11.856Z,2.80
2017-12-27T21:58:53.091Z,3.53
2017-12-27T22:01:35.152Z,2.87
2017-12-27T22:04:10.447Z,2.77
2017-12-27T22:06:44.090Z,2.93
2017-12-27T22:09:18.816Z,3.20
2017-12-27T22:11:51.798Z,2.33
2017-12-27T22:14:24.901Z,2.90
2017-12-27T22:16:58.196Z,2.13
2017-12-27T22:19:31.607Z,2.03
2017-12-27T22:22:04.954Z,2.73
2017-12-27T22:24:38.339Z,2.00
2017-12-27T22:27:11.676Z,2.07
2017-12-27T22:29:44.204Z,2.60
2017-12-27T22:32:17.440Z,2.07
2017-12-27T22:34:49.882Z,2.33
2017-12-27T22:37:23.188Z,2.90
2017-12-27T22:39:55.693Z,2.30
2017-12-27T22:42:29.014Z,2.57
2017-12-27T22:45:02.312Z,2.90
2017-12-27T22:47:35.746Z,3.17
2017-12-27T22:50:09.064Z,2.07
2017-12-27T22:52:42.283Z,2.40
2017-12-27T22:55:15.732Z,3.17
2017-12-27T22:57:48.536Z,2.10
2017-12-27T23:00:20.931Z,2.50
2017-12-27T23:02:53.461Z,2.23
2017-12-27T23:05:26.735Z,2.50
2017-12-27T23:07:59.557Z,2.20
2017-12-27T23:10:32.887Z,2.60
2017-12-27T23:13:05.469Z,2.53
2017-12-27T23:15:37.916Z,2.30
2017-12-27T23:18:12.007Z,2.30
2017-12-27T23:20:44.837Z,2.20
2017-12-27T23:23:17.242Z,1.70
2017-12-27T23:25:50.558Z,2.17
2017-12-27T23:28:23.718Z,1.83
2017-12-27T23:30:56.580Z,2.00
2017-12-27T23:33:29.969Z,1.40
2017-12-27T23:36:03.344Z,1.20
2017-12-27T23:38:36.741Z,1.00
2017-12-27T23:41:10.242Z,1.20
2017-12-27T23:43:42.790Z,1.40
2017-12-27T23:46:16.240Z,1.20
2017-12-27T23:48:49.621Z,1.20
2017-12-27T23:51:22.925Z,1.60
2017-12-27T23:53:55.380Z,1.70
2017-12-27T23:56:29.525Z,1.73
2017-12-27T23:59:02.138Z,1.30
